sensor_id;sensor_type;location;lat;lon;timestamp;P1;durP1;ratioP1;P2;durP2;ratioP2
67130;SDS011;54051;53.464;49.532;2023-06-22T00:02:39;5.68;;;2.30;;
67130;SDS011;54051;53.464;49.532;2023-06-22T00:05:06;5.63;;;2.40;;
67130;SDS011;54051;53.464;49.532;2023-06-22T00:07:35;5.03;;;2.17;;
67130;SDS011;54051;53.464;49.532;2023-06-22T00:10:02;4.80;;;2.28;;
67130;SDS011;54051;53.464;49.532;2023-06-22T00:12:28;10.40;;;2.50;;
67130;SDS011;54051;53.464;49.532;2023-06-22T00:14:54;5.33;;;2.13;;
67130;SDS011;54051;53.464;49.532;2023-06-22T00:17:21;6.07;;;2.10;;
67130;SDS011;54051;53.464;49.532;2023-06-22T00:19:47;5.30;;;2.45;;
67130;SDS011;54051;53.464;49.532;2023-06-22T00:22:19;6.38;;;2.33;;
67130;SDS011;54051;53.464;49.532;2023-06-22T00:24:54;5.68;;;2.17;;
67130;SDS011;54051;53.464;49.532;2023-06-22T00:27:21;4.97;;;2.10;;
67130;SDS011;54051;53.464;49.532;2023-06-22T00:29:47;5.73;;;1.90;;
67130;SDS011;54051;53.464;49.532;2023-06-22T00:32:14;5.70;;;1.95;;
67130;SDS011;54051;53.464;49.532;2023-06-22T00:34:40;4.97;;;2.10;;
67130;SDS011;54051;53.464;49.532;2023-06-22T00:37:06;4.20;;;1.95;;
67130;SDS011;54051;53.464;49.532;2023-06-22T00:39:32;4.63;;;1.97;;
67130;SDS011;54051;53.464;49.532;2023-06-22T00:41:59;7.10;;;1.90;;
67130;SDS011;54051;53.464;49.532;2023-06-22T00:44:26;5.25;;;2.00;;
67130;SDS011;54051;53.464;49.532;2023-06-22T00:46:52;4.93;;;1.70;;
67130;SDS011;54051;53.464;49.532;2023-06-22T00:49:19;5.40;;;1.90;;
67130;SDS011;54051;53.464;49.532;2023-06-22T00:51:45;4.23;;;1.73;;
67130;SDS011;54051;53.464;49.532;2023-06-22T00:54:13;5.07;;;1.70;;
67130;SDS011;54051;53.464;49.532;2023-06-22T00:56:40;5.07;;;1.63;;
67130;SDS011;54051;53.464;49.532;2023-06-22T00:59:08;3.90;;;1.80;;
67130;SDS011;54051;53.464;49.532;2023-06-22T01:01:38;4.57;;;1.90;;
67130;SDS011;54051;53.464;49.532;2023-06-22T01:04:07;4.68;;;1.70;;
67130;SDS011;54051;53.464;49.532;2023-06-22T01:06:35;4.10;;;1.70;;
67130;SDS011;54051;53.464;49.532;2023-06-22T01:09:18;5.57;;;1.75;;
67130;SDS011;54051;53.464;49.532;2023-06-22T01:11:49;3.90;;;1.67;;
67130;SDS011;54051;53.464;49.532;2023-06-22T01:14:27;4.25;;;1.60;;
67130;SDS011;54051;53.464;49.532;2023-06-22T01:17:15;3.88;;;1.58;;
67130;SDS011;54051;53.464;49.532;2023-06-22T01:19:45;5.82;;;1.85;;
67130;SDS011;54051;53.464;49.532;2023-06-22T01:22:25;6.38;;;1.65;;
67130;SDS011;54051;53.464;49.532;2023-06-22T01:30:31;4.55;;;1.73;;
67130;SDS011;54051;53.464;49.532;2023-06-22T01:32:59;4.43;;;1.90;;
67130;SDS011;54051;53.464;49.532;2023-06-22T01:35:30;4.78;;;1.80;;
67130;SDS011;54051;53.464;49.532;2023-06-22T01:37:56;4.72;;;1.80;;
67130;SDS011;54051;53.464;49.532;2023-06-22T01:40:23;5.00;;;1.80;;
67130;SDS011;54051;53.464;49.532;2023-06-22T01:45:16;5.03;;;1.70;;
67130;SDS011;54051;53.464;49.532;2023-06-22T01:47:44;4.20;;;1.67;;
67130;SDS011;54051;53.464;49.532;2023-06-22T01:50:10;4.95;;;1.88;;
67130;SDS011;54051;53.464;49.532;2023-06-22T01:55:04;4.60;;;1.95;;
67130;SDS011;54051;53.464;49.532;2023-06-22T01:57:31;4.63;;;2.00;;
67130;SDS011;54051;53.464;49.532;2023-06-22T02:00:04;3.72;;;1.55;;
67130;SDS011;54051;53.464;49.532;2023-06-22T02:02:40;4.40;;;1.70;;
67130;SDS011;54051;53.464;49.532;2023-06-22T02:05:15;4.80;;;1.60;;
67130;SDS011;54051;53.464;49.532;2023-06-22T02:07:47;4.10;;;1.58;;
67130;SDS011;54051;53.464;49.532;2023-06-22T02:10:19;4.90;;;1.60;;
67130;SDS011;54051;53.464;49.532;2023-06-22T02:12:46;4.68;;;1.80;;
67130;SDS011;54051;53.464;49.532;2023-06-22T02:15:14;5.25;;;1.60;;
67130;SDS011;54051;53.464;49.532;2023-06-22T02:17:42;5.65;;;1.73;;
67130;SDS011;54051;53.464;49.532;2023-06-22T02:20:14;3.90;;;1.60;;
67130;SDS011;54051;53.464;49.532;2023-06-22T02:22:41;4.05;;;1.80;;
67130;SDS011;54051;53.464;49.532;2023-06-22T02:25:07;4.78;;;1.90;;
67130;SDS011;54051;53.464;49.532;2023-06-22T02:27:34;4.85;;;1.90;;
67130;SDS011;54051;53.464;49.532;2023-06-22T02:30:00;3.90;;;1.80;;
67130;SDS011;54051;53.464;49.532;2023-06-22T02:32:26;4.80;;;2.00;;
67130;SDS011;54051;53.464;49.532;2023-06-22T02:34:53;4.57;;;1.97;;
67130;SDS011;54051;53.464;49.532;2023-06-22T02:37:19;5.35;;;1.60;;
67130;SDS011;54051;53.464;49.532;2023-06-22T02:39:45;4.95;;;1.67;;
67130;SDS011;54051;53.464;49.532;2023-06-22T02:42:12;5.23;;;1.63;;
67130;SDS011;54051;53.464;49.532;2023-06-22T02:44:38;5.35;;;1.88;;
67130;SDS011;54051;53.464;49.532;2023-06-22T02:47:05;6.10;;;2.00;;
67130;SDS011;54051;53.464;49.532;2023-06-22T02:49:31;5.88;;;2.03;;
67130;SDS011;54051;53.464;49.532;2023-06-22T02:51:57;4.97;;;2.00;;
67130;SDS011;54051;53.464;49.532;2023-06-22T02:54:24;5.43;;;1.98;;
67130;SDS011;54051;53.464;49.532;2023-06-22T02:59:17;4.80;;;1.80;;
67130;SDS011;54051;53.464;49.532;2023-06-22T03:01:43;5.13;;;1.92;;
67130;SDS011;54051;53.464;49.532;2023-06-22T03:04:10;4.38;;;1.60;;
67130;SDS011;54051;53.464;49.532;2023-06-22T03:06:36;4.47;;;1.70;;
67130;SDS011;54051;53.464;49.532;2023-06-22T03:09:03;5.32;;;1.90;;
67130;SDS011;54051;53.464;49.532;2023-06-22T03:11:31;5.22;;;1.95;;
67130;SDS011;54051;53.464;49.532;2023-06-22T03:13:58;5.00;;;1.92;;
67130;SDS011;54051;53.464;49.532;2023-06-22T03:16:25;6.50;;;2.03;;
67130;SDS011;54051;53.464;49.532;2023-06-22T03:18:52;6.47;;;2.15;;
67130;SDS011;54051;53.464;49.532;2023-06-22T03:21:26;4.40;;;2.13;;
67130;SDS011;54051;53.464;49.532;2023-06-22T03:23:54;5.78;;;2.20;;
67130;SDS011;54051;53.464;49.532;2023-06-22T03:28:47;4.88;;;2.00;;
67130;SDS011;54051;53.464;49.532;2023-06-22T03:31:13;5.32;;;2.60;;
67130;SDS011;54051;53.464;49.532;2023-06-22T03:33:39;4.75;;;2.03;;
67130;SDS011;54051;53.464;49.532;2023-06-22T03:36:06;6.03;;;1.92;;
67130;SDS011;54051;53.464;49.532;2023-06-22T03:40:59;4.38;;;1.92;;
67130;SDS011;54051;53.464;49.532;2023-06-22T03:43:26;5.18;;;1.98;;
67130;SDS011;54051;53.464;49.532;2023-06-22T03:45:52;5.07;;;1.58;;
67130;SDS011;54051;53.464;49.532;2023-06-22T03:48:18;4.05;;;1.55;;
67130;SDS011;54051;53.464;49.532;2023-06-22T03:50:44;5.68;;;1.88;;
67130;SDS011;54051;53.464;49.532;2023-06-22T03:53:11;4.47;;;1.77;;
67130;SDS011;54051;53.464;49.532;2023-06-22T03:55:40;4.43;;;1.58;;
67130;SDS011;54051;53.464;49.532;2023-06-22T03:58:14;4.50;;;1.60;;
67130;SDS011;54051;53.464;49.532;2023-06-22T04:00:40;5.13;;;1.60;;
67130;SDS011;54051;53.464;49.532;2023-06-22T04:03:07;4.35;;;1.65;;
67130;SDS011;54051;53.464;49.532;2023-06-22T04:05:33;4.43;;;1.67;;
67130;SDS011;54051;53.464;49.532;2023-06-22T04:07:59;4.80;;;1.63;;
67130;SDS011;54051;53.464;49.532;2023-06-22T04:10:26;5.18;;;1.60;;
67130;SDS011;54051;53.464;49.532;2023-06-22T04:12:53;5.70;;;1.85;;
67130;SDS011;54051;53.464;49.532;2023-06-22T04:15:19;4.13;;;1.85;;
67130;SDS011;54051;53.464;49.532;2023-06-22T04:17:46;5.25;;;2.22;;
67130;SDS011;54051;53.464;49.532;2023-06-22T04:20:12;5.38;;;2.20;;
67130;SDS011;54051;53.464;49.532;2023-06-22T04:22:38;5.90;;;2.30;;
67130;SDS011;54051;53.464;49.532;2023-06-22T04:25:05;5.72;;;2.25;;
67130;SDS011;54051;53.464;49.532;2023-06-22T04:27:33;3.72;;;1.60;;
67130;SDS011;54051;53.464;49.532;2023-06-22T04:30:06;5.35;;;1.85;;
67130;SDS011;54051;53.464;49.532;2023-06-22T04:32:34;5.05;;;1.65;;
67130;SDS011;54051;53.464;49.532;2023-06-22T04:35:05;5.00;;;1.73;;
67130;SDS011;54051;53.464;49.532;2023-06-22T04:37:32;5.00;;;2.00;;
67130;SDS011;54051;53.464;49.532;2023-06-22T04:39:59;6.00;;;2.42;;
67130;SDS011;54051;53.464;49.532;2023-06-22T04:42:27;5.90;;;2.40;;
67130;SDS011;54051;53.464;49.532;2023-06-22T04:44:54;6.40;;;2.22;;
67130;SDS011;54051;53.464;49.532;2023-06-22T04:47:20;5.60;;;2.35;;
67130;SDS011;54051;53.464;49.532;2023-06-22T04:49:46;5.53;;;2.10;;
67130;SDS011;54051;53.464;49.532;2023-06-22T04:52:13;4.93;;;2.10;;
67130;SDS011;54051;53.464;49.532;2023-06-22T04:54:43;6.13;;;2.10;;
67130;SDS011;54051;53.464;49.532;2023-06-22T04:57:13;6.13;;;2.38;;
67130;SDS011;54051;53.464;49.532;2023-06-22T04:59:40;6.60;;;2.80;;
67130;SDS011;54051;53.464;49.532;2023-06-22T05:02:07;5.78;;;2.70;;
67130;SDS011;54051;53.464;49.532;2023-06-22T05:07:04;5.00;;;2.20;;
67130;SDS011;54051;53.464;49.532;2023-06-22T05:09:31;6.15;;;2.80;;
67130;SDS011;54051;53.464;49.532;2023-06-22T05:11:59;7.22;;;2.55;;
67130;SDS011;54051;53.464;49.532;2023-06-22T05:14:28;4.50;;;2.20;;
67130;SDS011;54051;53.464;49.532;2023-06-22T05:16:55;6.32;;;2.53;;
67130;SDS011;54051;53.464;49.532;2023-06-22T05:19:24;5.57;;;2.28;;
67130;SDS011;54051;53.464;49.532;2023-06-22T05:21:57;5.38;;;2.20;;
67130;SDS011;54051;53.464;49.532;2023-06-22T05:24:23;4.55;;;1.60;;
67130;SDS011;54051;53.464;49.532;2023-06-22T05:26:49;4.40;;;1.70;;
67130;SDS011;54051;53.464;49.532;2023-06-22T05:29:16;4.35;;;1.80;;
67130;SDS011;54051;53.464;49.532;2023-06-22T05:31:42;4.40;;;1.52;;
67130;SDS011;54051;53.464;49.532;2023-06-22T05:34:08;3.65;;;1.48;;
67130;SDS011;54051;53.464;49.532;2023-06-22T05:36:34;4.53;;;1.63;;
67130;SDS011;54051;53.464;49.532;2023-06-22T05:39:10;5.05;;;1.55;;
67130;SDS011;54051;53.464;49.532;2023-06-22T05:41:38;5.03;;;1.40;;
67130;SDS011;54051;53.464;49.532;2023-06-22T05:44:04;5.05;;;1.70;;
67130;SDS011;54051;53.464;49.532;2023-06-22T05:46:31;6.00;;;1.60;;
67130;SDS011;54051;53.464;49.532;2023-06-22T05:48:57;3.67;;;1.30;;
67130;SDS011;54051;53.464;49.532;2023-06-22T05:51:23;3.60;;;1.45;;
67130;SDS011;54051;53.464;49.532;2023-06-22T05:53:49;5.85;;;1.50;;
67130;SDS011;54051;53.464;49.532;2023-06-22T05:56:17;4.22;;;1.63;;
67130;SDS011;54051;53.464;49.532;2023-06-22T05:58:44;4.18;;;1.52;;
67130;SDS011;54051;53.464;49.532;2023-06-22T06:01:11;5.25;;;1.40;;
67130;SDS011;54051;53.464;49.532;2023-06-22T06:03:38;4.05;;;1.30;;
67130;SDS011;54051;53.464;49.532;2023-06-22T06:06:07;4.18;;;1.38;;
67130;SDS011;54051;53.464;49.532;2023-06-22T06:08:33;3.70;;;1.40;;
67130;SDS011;54051;53.464;49.532;2023-06-22T06:11:00;4.05;;;1.48;;
67130;SDS011;54051;53.464;49.532;2023-06-22T06:13:26;5.15;;;1.50;;
67130;SDS011;54051;53.464;49.532;2023-06-22T06:15:52;4.57;;;1.45;;
67130;SDS011;54051;53.464;49.532;2023-06-22T06:18:21;3.95;;;1.40;;
67130;SDS011;54051;53.464;49.532;2023-06-22T06:20:47;4.20;;;1.52;;
67130;SDS011;54051;53.464;49.532;2023-06-22T06:23:13;4.80;;;1.35;;
67130;SDS011;54051;53.464;49.532;2023-06-22T06:25:40;5.13;;;1.60;;
67130;SDS011;54051;53.464;49.532;2023-06-22T06:28:06;4.25;;;1.50;;
67130;SDS011;54051;53.464;49.532;2023-06-22T06:30:32;3.97;;;1.45;;
67130;SDS011;54051;53.464;49.532;2023-06-22T06:32:58;5.22;;;1.45;;
67130;SDS011;54051;53.464;49.532;2023-06-22T06:35:25;3.35;;;1.27;;
67130;SDS011;54051;53.464;49.532;2023-06-22T06:37:51;4.18;;;1.40;;
67130;SDS011;54051;53.464;49.532;2023-06-22T06:40:18;3.58;;;1.20;;
67130;SDS011;54051;53.464;49.532;2023-06-22T06:42:48;5.05;;;1.30;;
67130;SDS011;54051;53.464;49.532;2023-06-22T06:45:18;3.47;;;1.20;;
67130;SDS011;54051;53.464;49.532;2023-06-22T06:47:48;3.53;;;1.30;;
67130;SDS011;54051;53.464;49.532;2023-06-22T06:50:15;4.50;;;1.40;;
67130;SDS011;54051;53.464;49.532;2023-06-22T06:52:42;4.68;;;1.40;;
67130;SDS011;54051;53.464;49.532;2023-06-22T06:55:08;4.07;;;1.30;;
67130;SDS011;54051;53.464;49.532;2023-06-22T06:57:38;3.92;;;1.35;;
67130;SDS011;54051;53.464;49.532;2023-06-22T07:00:06;5.18;;;1.73;;
67130;SDS011;54051;53.464;49.532;2023-06-22T07:02:39;4.93;;;1.50;;
67130;SDS011;54051;53.464;49.532;2023-06-22T07:05:07;5.38;;;1.55;;
67130;SDS011;54051;53.464;49.532;2023-06-22T07:07:34;3.75;;;1.50;;
67130;SDS011;54051;53.464;49.532;2023-06-22T07:17:19;3.92;;;1.55;;
67130;SDS011;54051;53.464;49.532;2023-06-22T07:19:45;4.30;;;1.30;;
67130;SDS011;54051;53.464;49.532;2023-06-22T07:22:11;5.95;;;1.77;;
67130;SDS011;54051;53.464;49.532;2023-06-22T07:24:38;4.53;;;1.65;;
67130;SDS011;54051;53.464;49.532;2023-06-22T07:27:04;5.38;;;1.30;;
67130;SDS011;54051;53.464;49.532;2023-06-22T07:29:32;4.90;;;1.60;;
67130;SDS011;54051;53.464;49.532;2023-06-22T07:31:58;4.47;;;1.40;;
67130;SDS011;54051;53.464;49.532;2023-06-22T07:34:26;4.45;;;1.50;;
67130;SDS011;54051;53.464;49.532;2023-06-22T07:36:52;5.28;;;1.27;;
67130;SDS011;54051;53.464;49.532;2023-06-22T07:41:51;5.45;;;1.52;;
67130;SDS011;54051;53.464;49.532;2023-06-22T07:44:17;3.45;;;1.50;;
67130;SDS011;54051;53.464;49.532;2023-06-22T07:46:44;7.30;;;1.73;;
67130;SDS011;54051;53.464;49.532;2023-06-22T07:49:10;4.45;;;1.50;;
67130;SDS011;54051;53.464;49.532;2023-06-22T07:51:37;4.22;;;1.50;;
67130;SDS011;54051;53.464;49.532;2023-06-22T07:54:04;4.00;;;1.52;;
67130;SDS011;54051;53.464;49.532;2023-06-22T07:56:30;3.63;;;1.40;;
67130;SDS011;54051;53.464;49.532;2023-06-22T07:58:56;3.33;;;1.50;;
67130;SDS011;54051;53.464;49.532;2023-06-22T08:01:25;5.53;;;1.40;;
67130;SDS011;54051;53.464;49.532;2023-06-22T08:03:51;3.83;;;1.50;;
67130;SDS011;54051;53.464;49.532;2023-06-22T08:06:17;4.47;;;1.70;;
67130;SDS011;54051;53.464;49.532;2023-06-22T08:08:44;4.68;;;1.70;;
67130;SDS011;54051;53.464;49.532;2023-06-22T08:11:14;7.88;;;1.48;;
67130;SDS011;54051;53.464;49.532;2023-06-22T08:13:41;4.85;;;1.90;;
67130;SDS011;54051;53.464;49.532;2023-06-22T08:16:07;3.22;;;1.30;;
67130;SDS011;54051;53.464;49.532;2023-06-22T08:18:33;4.18;;;1.42;;
67130;SDS011;54051;53.464;49.532;2023-06-22T08:23:26;3.75;;;1.50;;
67130;SDS011;54051;53.464;49.532;2023-06-22T08:30:45;3.70;;;1.10;;
67130;SDS011;54051;53.464;49.532;2023-06-22T08:33:12;3.55;;;1.30;;
67130;SDS011;54051;53.464;49.532;2023-06-22T08:35:38;5.05;;;1.60;;
67130;SDS011;54051;53.464;49.532;2023-06-22T08:38:05;4.07;;;1.42;;
67130;SDS011;54051;53.464;49.532;2023-06-22T08:42:57;4.07;;;1.80;;
67130;SDS011;54051;53.464;49.532;2023-06-22T08:45:24;4.97;;;1.60;;
67130;SDS011;54051;53.464;49.532;2023-06-22T08:47:50;4.22;;;1.50;;
67130;SDS011;54051;53.464;49.532;2023-06-22T08:50:17;4.30;;;1.58;;
67130;SDS011;54051;53.464;49.532;2023-06-22T08:52:43;4.53;;;1.50;;
67130;SDS011;54051;53.464;49.532;2023-06-22T08:55:11;5.22;;;1.67;;
67130;SDS011;54051;53.464;49.532;2023-06-22T08:57:37;3.70;;;1.50;;
67130;SDS011;54051;53.464;49.532;2023-06-22T09:00:08;3.92;;;1.35;;
67130;SDS011;54051;53.464;49.532;2023-06-22T09:02:46;4.65;;;1.90;;
67130;SDS011;54051;53.464;49.532;2023-06-22T09:05:13;4.20;;;1.50;;
67130;SDS011;54051;53.464;49.532;2023-06-22T09:10:06;4.45;;;1.50;;
67130;SDS011;54051;53.464;49.532;2023-06-22T09:17:26;3.35;;;1.17;;
67130;SDS011;54051;53.464;49.532;2023-06-22T09:19:53;3.75;;;1.30;;
67130;SDS011;54051;53.464;49.532;2023-06-22T09:22:20;3.13;;;1.20;;
67130;SDS011;54051;53.464;49.532;2023-06-22T09:24:46;3.22;;;1.35;;
67130;SDS011;54051;53.464;49.532;2023-06-22T09:27:12;3.67;;;1.23;;
67130;SDS011;54051;53.464;49.532;2023-06-22T09:29:39;3.63;;;1.20;;
67130;SDS011;54051;53.464;49.532;2023-06-22T09:32:05;3.65;;;1.30;;
67130;SDS011;54051;53.464;49.532;2023-06-22T09:39:26;3.97;;;1.50;;
67130;SDS011;54051;53.464;49.532;2023-06-22T09:41:52;3.50;;;1.20;;
67130;SDS011;54051;53.464;49.532;2023-06-22T09:44:19;3.25;;;1.10;;
67130;SDS011;54051;53.464;49.532;2023-06-22T09:46:45;6.30;;;1.30;;
67130;SDS011;54051;53.464;49.532;2023-06-22T09:49:11;3.85;;;1.50;;
67130;SDS011;54051;53.464;49.532;2023-06-22T09:51:38;6.40;;;2.75;;
67130;SDS011;54051;53.464;49.532;2023-06-22T09:54:04;3.38;;;1.35;;
67130;SDS011;54051;53.464;49.532;2023-06-22T09:56:30;3.97;;;1.42;;
67130;SDS011;54051;53.464;49.532;2023-06-22T09:59:03;4.68;;;1.50;;
67130;SDS011;54051;53.464;49.532;2023-06-22T10:01:35;4.07;;;1.40;;
67130;SDS011;54051;53.464;49.532;2023-06-22T10:04:02;3.30;;;1.35;;
67130;SDS011;54051;53.464;49.532;2023-06-22T10:06:28;4.15;;;1.63;;
67130;SDS011;54051;53.464;49.532;2023-06-22T10:08:55;3.53;;;1.27;;
67130;SDS011;54051;53.464;49.532;2023-06-22T10:11:21;5.63;;;2.22;;
67130;SDS011;54051;53.464;49.532;2023-06-22T10:13:52;4.82;;;1.85;;
67130;SDS011;54051;53.464;49.532;2023-06-22T10:16:18;4.75;;;1.90;;
67130;SDS011;54051;53.464;49.532;2023-06-22T10:18:45;4.15;;;1.33;;
67130;SDS011;54051;53.464;49.532;2023-06-22T10:21:11;3.88;;;1.50;;
67130;SDS011;54051;53.464;49.532;2023-06-22T10:23:37;3.70;;;1.65;;
67130;SDS011;54051;53.464;49.532;2023-06-22T10:26:03;3.50;;;1.60;;
67130;SDS011;54051;53.464;49.532;2023-06-22T10:28:30;3.83;;;1.30;;
67130;SDS011;54051;53.464;49.532;2023-06-22T10:30:57;4.05;;;1.30;;
67130;SDS011;54051;53.464;49.532;2023-06-22T10:33:23;4.22;;;1.30;;
67130;SDS011;54051;53.464;49.532;2023-06-22T10:35:50;3.22;;;1.20;;
67130;SDS011;54051;53.464;49.532;2023-06-22T10:38:16;3.50;;;1.20;;
67130;SDS011;54051;53.464;49.532;2023-06-22T10:40:42;6.60;;;1.55;;
67130;SDS011;54051;53.464;49.532;2023-06-22T10:43:09;3.15;;;1.15;;
67130;SDS011;54051;53.464;49.532;2023-06-22T10:45:35;4.35;;;1.05;;
67130;SDS011;54051;53.464;49.532;2023-06-22T10:48:01;5.13;;;1.60;;
67130;SDS011;54051;53.464;49.532;2023-06-22T10:50:27;4.70;;;1.40;;
67130;SDS011;54051;53.464;49.532;2023-06-22T10:52:55;4.15;;;1.20;;
67130;SDS011;54051;53.464;49.532;2023-06-22T10:55:21;3.45;;;1.20;;
67130;SDS011;54051;53.464;49.532;2023-06-22T10:57:47;3.38;;;1.20;;
67130;SDS011;54051;53.464;49.532;2023-06-22T11:00:14;4.30;;;1.40;;
67130;SDS011;54051;53.464;49.532;2023-06-22T11:02:41;4.15;;;1.30;;
67130;SDS011;54051;53.464;49.532;2023-06-22T11:05:07;3.80;;;1.60;;
67130;SDS011;54051;53.464;49.532;2023-06-22T11:07:34;4.65;;;1.90;;
67130;SDS011;54051;53.464;49.532;2023-06-22T11:10:00;8.15;;;2.15;;
67130;SDS011;54051;53.464;49.532;2023-06-22T11:12:27;5.20;;;1.90;;
67130;SDS011;54051;53.464;49.532;2023-06-22T11:14:53;3.90;;;1.60;;
67130;SDS011;54051;53.464;49.532;2023-06-22T11:17:19;4.43;;;1.85;;
67130;SDS011;54051;53.464;49.532;2023-06-22T11:19:45;3.90;;;1.70;;
67130;SDS011;54051;53.464;49.532;2023-06-22T11:22:12;5.70;;;2.03;;
67130;SDS011;54051;53.464;49.532;2023-06-22T11:24:38;3.60;;;1.60;;
67130;SDS011;54051;53.464;49.532;2023-06-22T11:27:05;4.97;;;1.85;;
67130;SDS011;54051;53.464;49.532;2023-06-22T11:29:31;4.40;;;1.90;;
67130;SDS011;54051;53.464;49.532;2023-06-22T11:31:58;4.55;;;1.80;;
67130;SDS011;54051;53.464;49.532;2023-06-22T11:34:24;3.78;;;1.60;;
67130;SDS011;54051;53.464;49.532;2023-06-22T11:36:50;3.67;;;1.40;;
67130;SDS011;54051;53.464;49.532;2023-06-22T11:39:17;4.93;;;1.60;;
67130;SDS011;54051;53.464;49.532;2023-06-22T11:41:43;5.03;;;2.00;;
67130;SDS011;54051;53.464;49.532;2023-06-22T11:44:09;4.03;;;1.70;;
67130;SDS011;54051;53.464;49.532;2023-06-22T11:46:35;3.95;;;1.50;;
67130;SDS011;54051;53.464;49.532;2023-06-22T11:51:28;4.55;;;1.38;;
67130;SDS011;54051;53.464;49.532;2023-06-22T11:53:57;4.55;;;1.48;;
67130;SDS011;54051;53.464;49.532;2023-06-22T11:56:24;3.40;;;1.40;;
67130;SDS011;54051;53.464;49.532;2023-06-22T11:58:50;4.22;;;1.50;;
67130;SDS011;54051;53.464;49.532;2023-06-22T12:01:17;5.05;;;1.40;;
67130;SDS011;54051;53.464;49.532;2023-06-22T12:03:43;3.72;;;1.30;;
67130;SDS011;54051;53.464;49.532;2023-06-22T12:06:10;3.95;;;1.30;;
67130;SDS011;54051;53.464;49.532;2023-06-22T12:08:36;3.17;;;1.15;;
67130;SDS011;54051;53.464;49.532;2023-06-22T12:11:03;3.80;;;1.25;;
67130;SDS011;54051;53.464;49.532;2023-06-22T12:13:29;3.15;;;1.10;;
67130;SDS011;54051;53.464;49.532;2023-06-22T12:15:55;3.13;;;1.30;;
67130;SDS011;54051;53.464;49.532;2023-06-22T12:18:22;3.92;;;1.70;;
67130;SDS011;54051;53.464;49.532;2023-06-22T12:20:48;5.15;;;1.50;;
67130;SDS011;54051;53.464;49.532;2023-06-22T12:23:14;3.83;;;1.25;;
67130;SDS011;54051;53.464;49.532;2023-06-22T12:25:41;4.43;;;1.60;;
67130;SDS011;54051;53.464;49.532;2023-06-22T12:28:07;4.70;;;2.30;;
67130;SDS011;54051;53.464;49.532;2023-06-22T12:30:34;5.97;;;1.52;;
67130;SDS011;54051;53.464;49.532;2023-06-22T12:33:03;4.30;;;1.55;;
67130;SDS011;54051;53.464;49.532;2023-06-22T12:35:29;4.28;;;1.40;;
67130;SDS011;54051;53.464;49.532;2023-06-22T12:37:55;5.15;;;1.42;;
67130;SDS011;54051;53.464;49.532;2023-06-22T12:40:21;6.85;;;1.73;;
67130;SDS011;54051;53.464;49.532;2023-06-22T12:42:51;4.32;;;1.75;;
67130;SDS011;54051;53.464;49.532;2023-06-22T12:45:20;4.80;;;1.65;;
67130;SDS011;54051;53.464;49.532;2023-06-22T12:47:47;4.80;;;1.70;;
67130;SDS011;54051;53.464;49.532;2023-06-22T12:50:21;7.18;;;2.30;;
67130;SDS011;54051;53.464;49.532;2023-06-22T12:52:50;4.15;;;1.50;;
67130;SDS011;54051;53.464;49.532;2023-06-22T12:57:50;4.22;;;1.80;;
67130;SDS011;54051;53.464;49.532;2023-06-22T13:02:53;5.93;;;2.30;;
67130;SDS011;54051;53.464;49.532;2023-06-22T13:05:20;4.68;;;1.70;;
67130;SDS011;54051;53.464;49.532;2023-06-22T13:07:46;5.72;;;1.88;;
67130;SDS011;54051;53.464;49.532;2023-06-22T13:10:12;3.72;;;1.40;;
67130;SDS011;54051;53.464;49.532;2023-06-22T13:12:38;4.70;;;1.80;;
67130;SDS011;54051;53.464;49.532;2023-06-22T13:15:07;5.00;;;1.70;;
67130;SDS011;54051;53.464;49.532;2023-06-22T13:17:37;5.45;;;1.75;;
67130;SDS011;54051;53.464;49.532;2023-06-22T13:20:04;4.20;;;1.70;;
67130;SDS011;54051;53.464;49.532;2023-06-22T13:22:32;6.40;;;2.00;;
67130;SDS011;54051;53.464;49.532;2023-06-22T13:25:05;5.55;;;2.15;;
67130;SDS011;54051;53.464;49.532;2023-06-22T13:27:32;3.95;;;1.75;;
67130;SDS011;54051;53.464;49.532;2023-06-22T13:29:59;5.72;;;1.83;;
67130;SDS011;54051;53.464;49.532;2023-06-22T13:32:26;4.45;;;1.60;;
67130;SDS011;54051;53.464;49.532;2023-06-22T13:34:55;4.80;;;2.03;;
67130;SDS011;54051;53.464;49.532;2023-06-22T13:37:21;4.57;;;2.05;;
67130;SDS011;54051;53.464;49.532;2023-06-22T13:39:47;5.82;;;1.60;;
67130;SDS011;54051;53.464;49.532;2023-06-22T13:42:13;4.60;;;1.75;;
67130;SDS011;54051;53.464;49.532;2023-06-22T13:44:40;4.20;;;1.90;;
67130;SDS011;54051;53.464;49.532;2023-06-22T13:47:06;5.32;;;1.70;;
67130;SDS011;54051;53.464;49.532;2023-06-22T13:49:33;5.13;;;1.50;;
67130;SDS011;54051;53.464;49.532;2023-06-22T13:51:59;5.22;;;1.70;;
67130;SDS011;54051;53.464;49.532;2023-06-22T13:54:26;5.82;;;1.50;;
67130;SDS011;54051;53.464;49.532;2023-06-22T13:56:52;3.78;;;1.42;;
67130;SDS011;54051;53.464;49.532;2023-06-22T13:59:18;4.18;;;1.60;;
67130;SDS011;54051;53.464;49.532;2023-06-22T14:01:46;5.15;;;1.33;;
67130;SDS011;54051;53.464;49.532;2023-06-22T14:04:12;4.05;;;1.50;;
67130;SDS011;54051;53.464;49.532;2023-06-22T14:06:39;3.80;;;1.60;;
67130;SDS011;54051;53.464;49.532;2023-06-22T14:09:05;5.40;;;1.65;;
67130;SDS011;54051;53.464;49.532;2023-06-22T14:11:32;4.50;;;1.75;;
67130;SDS011;54051;53.464;49.532;2023-06-22T14:13:58;5.15;;;1.90;;
67130;SDS011;54051;53.464;49.532;2023-06-22T14:16:33;3.85;;;1.45;;
67130;SDS011;54051;53.464;49.532;2023-06-22T14:19:02;4.50;;;1.70;;
67130;SDS011;54051;53.464;49.532;2023-06-22T14:21:28;7.10;;;1.83;;
67130;SDS011;54051;53.464;49.532;2023-06-22T14:23:54;4.35;;;1.50;;
67130;SDS011;54051;53.464;49.532;2023-06-22T14:26:23;4.65;;;1.70;;
67130;SDS011;54051;53.464;49.532;2023-06-22T14:28:52;4.28;;;1.88;;
67130;SDS011;54051;53.464;49.532;2023-06-22T14:31:19;4.03;;;1.58;;
67130;SDS011;54051;53.464;49.532;2023-06-22T14:33:46;4.00;;;1.75;;
67130;SDS011;54051;53.464;49.532;2023-06-22T14:36:13;4.60;;;2.10;;
67130;SDS011;54051;53.464;49.532;2023-06-22T14:38:40;4.95;;;1.90;;
67130;SDS011;54051;53.464;49.532;2023-06-22T14:41:06;4.97;;;1.70;;
67130;SDS011;54051;53.464;49.532;2023-06-22T14:43:32;4.57;;;2.10;;
67130;SDS011;54051;53.464;49.532;2023-06-22T14:45:58;4.70;;;1.90;;
67130;SDS011;54051;53.464;49.532;2023-06-22T14:48:25;5.65;;;1.83;;
67130;SDS011;54051;53.464;49.532;2023-06-22T14:50:51;4.57;;;2.00;;
67130;SDS011;54051;53.464;49.532;2023-06-22T14:53:20;4.38;;;1.83;;
67130;SDS011;54051;53.464;49.532;2023-06-22T14:58:12;4.40;;;1.73;;
67130;SDS011;54051;53.464;49.532;2023-06-22T15:00:38;3.85;;;1.63;;
67130;SDS011;54051;53.464;49.532;2023-06-22T15:03:04;4.10;;;1.80;;
67130;SDS011;54051;53.464;49.532;2023-06-22T15:05:36;3.80;;;1.63;;
67130;SDS011;54051;53.464;49.532;2023-06-22T15:08:03;5.70;;;1.95;;
67130;SDS011;54051;53.464;49.532;2023-06-22T15:10:29;5.17;;;1.90;;
67130;SDS011;54051;53.464;49.532;2023-06-22T15:12:55;4.65;;;2.00;;
67130;SDS011;54051;53.464;49.532;2023-06-22T15:15:21;9.93;;;3.60;;
67130;SDS011;54051;53.464;49.532;2023-06-22T15:17:47;5.13;;;1.70;;
67130;SDS011;54051;53.464;49.532;2023-06-22T15:20:13;5.38;;;1.90;;
67130;SDS011;54051;53.464;49.532;2023-06-22T15:22:39;7.40;;;2.72;;
67130;SDS011;54051;53.464;49.532;2023-06-22T15:25:06;5.65;;;2.33;;
67130;SDS011;54051;53.464;49.532;2023-06-22T15:27:32;5.15;;;2.22;;
67130;SDS011;54051;53.464;49.532;2023-06-22T15:29:58;5.57;;;2.00;;
67130;SDS011;54051;53.464;49.532;2023-06-22T15:32:25;7.05;;;3.00;;
67130;SDS011;54051;53.464;49.532;2023-06-22T15:34:51;5.32;;;2.58;;
67130;SDS011;54051;53.464;49.532;2023-06-22T15:37:19;6.20;;;3.03;;